Time;durP1;ratioP1;P1;durP2;ratioP2;P2;SDS_P1;SDS_P2;PMS_P1;PMS_P2;Temp;Humidity;BMP_temperature;BMP_pressure;BME280_temperature;BME280_humidity;BME280_pressure;Samples;Min_cycle;Max_cycle;Signal;HPM_P1;HPM_P2
2022/04/26 03:37:50;;;;;;;5.30;4.90;;;16.10;65.70;;;;;;5033709;28;20424;-73
2022/04/26 03:40:18;;;;;;;5.00;4.60;;;16.10;65.80;;;;;;5024275;28;20465;-74
2022/04/26 03:42:46;;;;;;;5.03;4.63;;;16.10;65.80;;;;;;5033071;28;20494;-73
2022/04/26 03:45:14;;;;;;;4.57;4.27;;;16.10;65.70;;;;;;5033319;28;20538;-73
2022/04/26 03:47:42;;;;;;;4.60;4.30;;;16.10;65.80;;;;;;5033506;28;20443;-72
2022/04/26 03:50:11;;;;;;;4.93;4.53;;;16.20;65.90;;;;;;5022179;28;20902;-74
2022/04/26 03:52:40;;;;;;;5.03;4.63;;;16.10;65.90;;;;;;5031821;28;20432;-73
2022/04/26 03:55:09;;;;;;;4.83;4.50;;;16.10;65.90;;;;;;5029906;28;20830;-74
2022/04/26 03:57:37;;;;;;;4.77;4.37;;;16.10;66.00;;;;;;5034216;28;20433;-74
2022/04/26 04:00:07;;;;;;;4.80;4.40;;;16.10;65.90;;;;;;5033692;28;20545;-73
2022/04/26 04:02:35;;;;;;;5.20;4.80;;;16.10;65.90;;;;;;5033755;28;20436;-73
2022/04/26 04:05:04;;;;;;;4.77;4.37;;;16.10;66.00;;;;;;5029342;28;20476;-73
2022/04/26 04:07:33;;;;;;;4.83;4.43;;;16.10;66.00;;;;;;5033665;28;20485;-73
2022/04/26 04:10:03;;;;;;;6.03;5.43;;;16.10;66.00;;;;;;5031897;28;20472;-74
2022/04/26 04:12:31;;;;;;;6.03;5.00;;;16.10;66.00;;;;;;5034058;28;21015;-73
2022/04/26 04:14:59;;;;;;;4.70;4.40;;;16.10;66.00;;;;;;5033087;28;20996;-74
2022/04/26 04:17:28;;;;;;;6.20;5.60;;;16.10;66.00;;;;;;5032550;28;20482;-73
2022/04/26 04:19:56;;;;;;;6.33;5.83;;;16.10;66.10;;;;;;5017462;28;20480;-74
2022/04/26 04:22:24;;;;;;;5.17;4.77;;;16.10;66.00;;;;;;5033632;28;20864;-73
2022/04/26 04:24:53;;;;;;;5.50;5.00;;;16.00;66.00;;;;;;5029554;28;20526;-73
2022/04/26 04:27:21;;;;;;;4.90;4.60;;;16.10;66.00;;;;;;5033465;28;20436;-73
2022/04/26 04:29:51;;;;;;;5.23;4.83;;;16.10;66.00;;;;;;5032571;28;20475;-74
2022/04/26 04:32:19;;;;;;;4.60;4.20;;;16.00;65.90;;;;;;5032495;28;20440;-73
2022/04/26 04:34:47;;;;;;;5.17;4.77;;;16.00;66.00;;;;;;5031324;28;20480;-74
2022/04/26 04:37:16;;;;;;;4.87;4.50;;;16.00;66.00;;;;;;5033636;28;20456;-72
2022/04/26 04:39:44;;;;;;;5.57;5.17;;;16.00;66.00;;;;;;5030936;28;20499;-73
2022/04/26 04:42:15;;;;;;;5.03;4.63;;;16.00;66.10;;;;;;5032048;28;21069;-73
2022/04/26 04:44:43;;;;;;;5.10;4.60;;;16.00;66.00;;;;;;5032607;28;20471;-74
2022/04/26 04:47:11;;;;;;;4.90;4.60;;;16.00;66.00;;;;;;5033336;28;20436;-73
2022/04/26 04:49:39;;;;;;;4.20;3.90;;;16.00;66.20;;;;;;5029364;28;20519;-66
2022/04/26 04:52:07;;;;;;;5.30;4.90;;;16.00;66.10;;;;;;5033332;28;20478;-65
2022/04/26 04:54:36;;;;;;;4.93;4.53;;;16.00;66.10;;;;;;5028232;28;20504;-67
2022/04/26 04:57:05;;;;;;;5.60;5.13;;;16.00;66.10;;;;;;5026255;28;20660;-67
2022/04/26 04:59:34;;;;;;;5.80;5.40;;;16.00;66.10;;;;;;5032268;28;20532;-67
2022/04/26 05:02:03;;;;;;;5.30;4.90;;;16.00;66.20;;;;;;5032923;28;20799;-65
2022/04/26 05:04:31;;;;;;;5.30;4.80;;;16.00;66.10;;;;;;5029923;28;20483;-67
2022/04/26 05:06:59;;;;;;;4.73;4.33;;;15.90;66.00;;;;;;5032452;28;20433;-67
2022/04/26 05:09:27;;;;;;;5.00;4.60;;;15.90;66.10;;;;;;5029237;28;21017;-67
2022/04/26 05:11:57;;;;;;;5.03;4.63;;;15.90;66.00;;;;;;5015639;28;20460;-67
2022/04/26 05:14:25;;;;;;;5.40;5.00;;;16.00;66.20;;;;;;5029216;28;20475;-67
2022/04/26 05:16:54;;;;;;;4.63;4.23;;;15.90;66.00;;;;;;5031274;28;20526;-68
2022/04/26 05:19:22;;;;;;;4.80;4.40;;;15.90;67.40;;;;;;5027487;28;20995;-67
2022/04/26 05:21:50;;;;;;;4.70;4.20;;;15.90;66.10;;;;;;5031506;28;20509;-67
2022/04/26 05:27:05;;;;;;;4.07;3.77;;;15.90;66.20;;;;;;5032738;28;20440;-68
2022/04/26 05:29:33;;;;;;;5.17;4.77;;;15.90;67.50;;;;;;5031760;28;20566;-67
2022/04/26 05:32:03;;;;;;;5.23;4.73;;;15.90;66.20;;;;;;5032561;28;20432;-67
2022/04/26 05:34:34;;;;;;;5.17;4.67;;;15.90;66.30;;;;;;5028544;28;20526;-67
2022/04/26 05:37:03;;;;;;;5.20;4.80;;;15.90;66.30;;;;;;5016174;28;20464;-67
2022/04/26 05:39:31;;;;;;;4.47;4.10;;;15.90;66.30;;;;;;5028330;28;20472;-67
2022/04/26 05:41:59;;;;;;;4.83;4.43;;;15.90;66.30;;;;;;5029387;28;20509;-67
2022/04/26 05:44:27;;;;;;;5.43;4.93;;;15.90;66.30;;;;;;5031620;28;20460;-67
2022/04/26 05:46:55;;;;;;;5.60;5.10;;;15.80;66.30;;;;;;5032362;28;20467;-67
2022/04/26 05:49:25;;;;;;;5.33;4.83;;;15.80;66.30;;;;;;5028245;28;20452;-65
2022/04/26 05:51:53;;;;;;;4.87;4.47;;;15.90;66.50;;;;;;5030888;28;20440;-66
2022/04/26 05:54:21;;;;;;;5.43;4.93;;;15.80;66.40;;;;;;5028804;28;20984;-67
2022/04/26 05:56:52;;;;;;;4.80;4.40;;;15.80;66.40;;;;;;5023266;28;20434;-67
2022/04/26 05:59:20;;;;;;;5.10;4.70;;;15.80;66.40;;;;;;5031733;28;20518;-67
2022/04/26 06:01:48;;;;;;;5.83;5.33;;;15.80;66.40;;;;;;5031705;28;20455;-66
2022/04/26 06:04:17;;;;;;;5.77;5.37;;;15.80;66.40;;;;;;5028870;28;20504;-68
2022/04/26 06:06:46;;;;;;;6.30;5.80;;;15.80;66.30;;;;;;5031386;28;20436;-67
2022/04/26 06:09:15;;;;;;;5.70;5.20;;;15.80;66.40;;;;;;5016689;28;20537;-67
2022/04/26 06:11:43;;;;;;;5.33;4.80;;;15.80;66.40;;;;;;5022385;28;21036;-67
2022/04/26 06:14:12;;;;;;;5.53;5.10;;;15.80;66.40;;;;;;5031180;28;20487;-67
2022/04/26 06:16:40;;;;;;;5.47;5.07;;;15.80;66.50;;;;;;5029868;28;20469;-67
2022/04/26 06:19:08;;;;;;;5.70;5.20;;;15.80;66.50;;;;;;5027068;28;20554;-67
2022/04/26 06:21:36;;;;;;;5.40;4.90;;;15.80;66.50;;;;;;5031755;28;20456;-66
2022/04/26 06:24:07;;;;;;;5.40;5.00;;;15.70;66.40;;;;;;5031257;28;20464;-66
2022/04/26 06:26:35;;;;;;;5.87;5.33;;;15.70;66.40;;;;;;5031830;28;20459;-68
2022/04/26 06:29:03;;;;;;;6.53;5.57;;;15.70;66.50;;;;;;5030090;28;20464;-67
2022/04/26 06:31:31;;;;;;;5.23;4.73;;;15.70;66.50;;;;;;5031198;28;20439;-66
2022/04/26 06:33:59;;;;;;;4.57;4.17;;;15.70;66.40;;;;;;5025873;28;20584;-68
2022/04/26 06:36:27;;;;;;;5.60;5.20;;;15.70;66.50;;;;;;5031543;28;20596;-66
2022/04/26 06:38:55;;;;;;;4.93;4.60;;;15.70;66.50;;;;;;5031170;28;20514;-66
2022/04/26 06:41:24;;;;;;;4.90;4.50;;;15.70;66.50;;;;;;5030164;28;20552;-67
2022/04/26 06:43:52;;;;;;;5.20;4.80;;;15.70;66.50;;;;;;5029300;28;21071;-67
2022/04/26 06:46:20;;;;;;;6.83;5.43;;;15.70;66.50;;;;;;5031373;28;20494;-68
2022/04/26 06:48:49;;;;;;;5.70;5.20;;;15.70;66.60;;;;;;5028921;28;20483;-67
2022/04/26 06:51:17;;;;;;;5.23;4.83;;;15.70;66.60;;;;;;5030777;28;20813;-68
2022/04/26 06:53:45;;;;;;;5.80;5.30;;;15.70;66.70;;;;;;5030462;28;20514;-67
2022/04/26 06:56:13;;;;;;;4.83;4.40;;;15.70;66.60;;;;;;5027554;28;20450;-67
2022/04/26 06:58:42;;;;;;;5.50;5.10;;;15.70;66.70;;;;;;5030205;28;20996;-67
2022/04/26 07:01:11;;;;;;;6.63;5.40;;;15.70;66.60;;;;;;5031650;28;20431;-67
2022/04/26 07:03:59;;;;;;;5.17;4.77;;;15.70;66.60;;;;;;5027129;28;20461;-67
2022/04/26 07:06:27;;;;;;;5.30;4.80;;;15.60;66.50;;;;;;5035280;28;20530;-67
2022/04/26 07:08:56;;;;;;;5.57;5.00;;;15.60;66.60;;;;;;5033987;28;20892;-68
2022/04/26 07:11:24;;;;;;;4.97;4.57;;;15.60;66.60;;;;;;5023720;28;20456;-67
2022/04/26 07:13:53;;;;;;;5.33;4.83;;;15.60;66.70;;;;;;5033970;28;20474;-67
2022/04/26 07:16:21;;;;;;;4.90;4.50;;;15.60;66.50;;;;;;5034886;28;20443;-68
2022/04/26 07:18:49;;;;;;;4.77;4.37;;;15.60;66.60;;;;;;5028358;28;20921;-67
2022/04/26 07:21:18;;;;;;;5.73;5.23;;;15.60;66.70;;;;;;5019154;28;20502;-66
2022/04/26 07:23:49;;;;;;;5.00;4.53;;;15.60;66.70;;;;;;5025089;28;20478;-68
2022/04/26 07:26:17;;;;;;;5.57;5.07;;;15.60;66.60;;;;;;5031053;28;20475;-66
2022/04/26 07:28:45;;;;;;;6.60;5.00;;;15.60;66.60;;;;;;5034134;28;21045;-68
2022/04/26 07:31:14;;;;;;;5.93;5.43;;;15.60;66.70;;;;;;5034519;28;20501;-66
2022/04/26 07:36:28;;;;;;;4.47;4.07;;;15.60;66.70;;;;;;5034565;28;20435;-67
2022/04/26 07:38:56;;;;;;;4.67;4.33;;;15.60;66.60;;;;;;5033828;28;20734;-67
2022/04/26 07:41:24;;;;;;;4.80;4.40;;;15.60;66.70;;;;;;5031344;28;20496;-67
2022/04/26 07:43:54;;;;;;;4.83;4.43;;;15.60;66.60;;;;;;5033811;28;20460;-66
2022/04/26 07:46:24;;;;;;;5.30;4.80;;;15.60;66.50;;;;;;5034087;28;20428;-67
2022/04/26 07:48:54;;;;;;;5.23;4.83;;;15.60;66.60;;;;;;5024887;28;20466;-67
2022/04/26 07:51:22;;;;;;;5.03;4.63;;;15.60;66.60;;;;;;5034231;28;20436;-66
2022/04/26 07:53:51;;;;;;;5.13;4.73;;;15.60;66.70;;;;;;5032319;28;20474;-67
2022/04/26 07:56:19;;;;;;;5.27;4.87;;;15.50;66.60;;;;;;5030733;28;20545;-66
2022/04/26 07:58:47;;;;;;;6.13;5.53;;;15.60;66.80;;;;;;5033450;28;20976;-68
2022/04/26 08:01:15;;;;;;;5.87;5.27;;;15.60;66.70;;;;;;5034512;28;20478;-67
2022/04/26 08:03:44;;;;;;;6.07;5.53;;;15.50;66.60;;;;;;5029821;28;20479;-67
2022/04/26 08:06:13;;;;;;;7.23;5.73;;;15.50;66.70;;;;;;5033803;28;20439;-67
2022/04/26 08:08:41;;;;;;;4.70;4.30;;;15.50;66.60;;;;;;5032492;28;20566;-67
2022/04/26 08:11:12;;;;;;;6.13;5.53;;;15.50;66.60;;;;;;5030574;28;20475;-67
2022/04/26 08:13:40;;;;;;;6.80;5.30;;;15.50;66.70;;;;;;5032957;28;20968;-68
2022/04/26 08:16:09;;;;;;;5.90;5.30;;;15.50;66.70;;;;;;5030679;28;20534;-67
2022/04/26 08:18:37;;;;;;;5.43;4.93;;;15.50;66.70;;;;;;5032562;28;20454;-68
2022/04/26 08:21:08;;;;;;;7.33;5.63;;;15.50;66.80;;;;;;5027144;28;20443;-67
2022/04/26 08:27:22;;;;;;;5.50;5.00;;;15.50;66.70;;;;;;5033005;28;20985;-66
2022/04/26 08:29:14;;;;;;;7.60;5.80;;;15.50;66.70;;;;;;5027297;28;20988;-66
2022/04/26 08:31:43;;;;;;;5.70;5.20;;;15.50;66.80;;;;;;5033363;28;20810;-67
2022/04/26 08:34:11;;;;;;;7.30;6.60;;;15.50;66.80;;;;;;5026407;28;20565;-67
2022/04/26 08:36:40;;;;;;;5.80;5.30;;;15.50;66.80;;;;;;5033719;28;20435;-68
2022/04/26 08:39:08;;;;;;;7.03;6.40;;;15.50;66.80;;;;;;5031935;28;20525;-68
2022/04/26 08:41:36;;;;;;;6.40;5.83;;;15.40;66.80;;;;;;5033322;28;20440;-67
2022/04/26 08:44:09;;;;;;;6.20;5.60;;;15.50;66.90;;;;;;5032791;28;20885;-67
2022/04/26 08:52:11;;;;;;;6.77;6.23;;;15.40;66.80;;;;;;5033319;28;20467;-67
2022/04/26 08:54:39;;;;;;;7.00;6.30;;;15.50;67.00;;;;;;5029265;28;20573;-67
2022/04/26 08:57:13;;;;;;;6.20;5.23;;;15.40;66.80;;;;;;5032434;28;20431;-66
2022/04/26 08:59:47;;;;;;;5.43;4.90;;;15.40;66.90;;;;;;5032692;28;20463;-67
2022/04/26 09:02:20;;;;;;;6.80;5.93;;;15.40;66.80;;;;;;5033209;28;20425;-67
2022/04/26 09:04:50;;;;;;;6.60;5.90;;;15.40;66.80;;;;;;5031842;28;20478;-67
2022/04/26 09:07:30;;;;;;;6.93;6.10;;;15.40;66.80;;;;;;5032449;28;20436;-67
2022/04/26 09:10:06;;;;;;;6.07;5.47;;;15.40;66.80;;;;;;5028789;28;21074;-67
2022/04/26 09:13:04;;;;;;;8.67;5.90;;;15.40;66.80;;;;;;5032061;28;20439;-67
2022/04/26 09:15:38;;;;;;;7.10;5.87;;;15.40;66.90;;;;;;5032722;28;20459;-67
2022/04/26 09:18:15;;;;;;;6.10;5.50;;;15.40;66.90;;;;;;5031924;28;20497;-66
2022/04/26 09:20:44;;;;;;;7.20;6.50;;;15.40;66.80;;;;;;5031065;28;20929;-66
2022/04/26 09:23:18;;;;;;;6.10;5.50;;;15.40;66.90;;;;;;5031859;28;20498;-67
2022/04/26 09:25:52;;;;;;;6.00;5.50;;;15.40;66.90;;;;;;5025155;28;20952;-67
2022/04/26 09:28:24;;;;;;;6.30;5.53;;;15.30;66.80;;;;;;5031902;28;20473;-66
2022/04/26 09:30:53;;;;;;;8.10;6.33;;;15.30;66.80;;;;;;5032099;28;20937;-69
2022/04/26 09:33:39;;;;;;;7.70;6.90;;;15.30;66.80;;;;;;5031666;28;20532;-66
2022/04/26 09:36:10;;;;;;;8.00;6.50;;;15.30;66.80;;;;;;5025282;28;20467;-67
2022/04/26 09:38:41;;;;;;;6.13;5.50;;;15.30;66.80;;;;;;5031569;28;20492;-66
2022/04/26 09:41:10;;;;;;;7.07;6.37;;;15.30;66.80;;;;;;5028998;28;20861;-67
2022/04/26 09:43:39;;;;;;;6.87;6.37;;;15.30;66.90;;;;;;5030480;28;20462;-68
2022/04/26 09:46:08;;;;;;;7.30;6.60;;;15.30;66.90;;;;;;5031903;28;20429;-67
2022/04/26 09:48:38;;;;;;;7.30;6.37;;;15.30;66.90;;;;;;5021737;28;20515;-67
2022/04/26 09:51:07;;;;;;;6.40;5.53;;;15.30;66.90;;;;;;5032671;28;20928;-66
2022/04/26 09:53:35;;;;;;;7.60;6.10;;;15.30;67.00;;;;;;5031743;28;20534;-68
2022/04/26 09:56:06;;;;;;;7.20;6.10;;;15.30;67.00;;;;;;5028151;28;20484;-68
2022/04/26 09:58:50;;;;;;;6.90;6.13;;;15.30;67.00;;;;;;5031868;28;20534;-67
2022/04/26 10:01:18;;;;;;;6.30;5.70;;;15.30;67.50;;;;;;5032342;28;20424;-67
2022/04/26 10:03:51;;;;;;;6.57;6.00;;;15.30;67.10;;;;;;5026550;28;20462;-66
2022/04/26 10:06:22;;;;;;;6.60;6.00;;;15.30;67.00;;;;;;5011074;28;20466;-67
2022/04/26 10:08:51;;;;;;;6.90;5.77;;;15.30;67.10;;;;;;5028575;28;21070;-66
2022/04/26 10:11:20;;;;;;;7.03;6.43;;;15.20;66.90;;;;;;5025477;28;20483;-67
2022/04/26 10:13:49;;;;;;;6.27;5.77;;;15.30;67.00;;;;;;5031280;28;20558;-67
2022/04/26 10:16:21;;;;;;;5.60;5.10;;;15.30;67.10;;;;;;5031660;28;20938;-68
2022/04/26 10:18:51;;;;;;;5.67;5.13;;;15.20;67.00;;;;;;5029847;28;20470;-67
2022/04/26 10:21:50;;;;;;;6.70;6.10;;;15.30;67.10;;;;;;5025438;28;20430;-67
2022/04/26 10:24:20;;;;;;;5.87;5.33;;;15.20;66.90;;;;;;5029108;28;20478;-67
2022/04/26 10:26:52;;;;;;;6.90;6.20;;;15.20;67.00;;;;;;5030523;28;20438;-65
2022/04/26 10:29:24;;;;;;;6.67;6.03;;;15.20;67.00;;;;;;5031008;28;20505;-65
2022/04/26 10:32:00;;;;;;;5.83;5.23;;;15.20;68.30;;;;;;5031454;28;20439;-67
2022/04/26 10:34:34;;;;;;;6.50;5.73;;;15.30;67.10;;;;;;5027435;28;20470;-66
2022/04/26 10:37:33;;;;;;;6.70;6.10;;;15.30;67.10;;;;;;5019730;28;20436;-68
2022/04/26 10:40:02;;;;;;;6.47;5.83;;;15.30;67.20;;;;;;5023280;28;20474;-68
2022/04/26 10:42:35;;;;;;;5.63;5.10;;;15.20;67.00;;;;;;5030965;28;20439;-67
2022/04/26 10:45:11;;;;;;;6.30;5.70;;;15.20;68.30;;;;;;5030460;28;20470;-66
2022/04/26 10:47:40;;;;;;;6.53;5.93;;;15.20;67.00;;;;;;5031135;28;20439;-65
2022/04/26 10:50:12;;;;;;;7.23;6.63;;;15.20;67.10;;;;;;5019974;28;20477;-68
2022/04/26 10:52:47;;;;;;;6.50;6.00;;;15.20;68.40;;;;;;5031499;28;20439;-66
2022/04/26 10:55:17;;;;;;;6.87;5.70;;;15.20;67.00;;;;;;5027537;28;20880;-67
2022/04/26 10:57:48;;;;;;;5.50;5.00;;;15.20;67.10;;;;;;5031159;28;20442;-66
2022/04/26 11:00:20;;;;;;;6.27;5.77;;;15.20;67.00;;;;;;5030652;28;20904;-66
2022/04/26 11:02:50;;;;;;;6.47;5.80;;;15.20;67.10;;;;;;5029551;28;20431;-67
2022/04/26 11:05:23;;;;;;;6.47;5.87;;;15.20;67.20;;;;;;5018256;28;20903;-67
2022/04/26 11:07:52;;;;;;;6.40;5.90;;;15.20;67.10;;;;;;5029690;28;20457;-65
2022/04/26 11:10:26;;;;;;;8.17;7.20;;;15.20;67.10;;;;;;5024875;28;20479;-66
2022/04/26 11:12:58;;;;;;;10.97;9.37;;;15.20;67.80;;;;;;5028635;28;20438;-67
2022/04/26 11:15:26;;;;;;;8.67;7.87;;;15.10;67.80;;;;;;5030543;28;20509;-67
2022/04/26 11:17:55;;;;;;;11.97;9.17;;;15.10;67.80;;;;;;5031378;28;20436;-67
2022/04/26 11:20:25;;;;;;;7.50;6.80;;;15.10;67.80;;;;;;5028818;28;20462;-67
2022/04/26 11:22:56;;;;;;;8.17;7.33;;;15.10;67.70;;;;;;5028274;28;20484;-67
2022/04/26 11:28:17;;;;;;;7.27;6.60;;;15.10;67.50;;;;;;5030550;28;20438;-68
2022/04/26 11:30:46;;;;;;;7.10;6.50;;;15.10;67.60;;;;;;5027883;28;20478;-66
2022/04/26 11:33:18;;;;;;;8.30;7.37;;;15.10;67.80;;;;;;5010579;28;20444;-67
2022/04/26 11:35:52;;;;;;;7.60;6.50;;;15.10;67.70;;;;;;5018777;28;20474;-68
2022/04/26 11:38:24;;;;;;;7.77;7.07;;;15.10;67.50;;;;;;5031033;28;20486;-67
2022/04/26 11:40:55;;;;;;;6.77;6.13;;;15.10;67.50;;;;;;5016651;28;20498;-67
2022/04/26 11:43:26;;;;;;;7.37;6.67;;;15.10;67.60;;;;;;5011120;28;20829;-68
2022/04/26 11:45:56;;;;;;;7.03;6.43;;;15.10;67.60;;;;;;5010913;28;20468;-67
2022/04/26 11:48:26;;;;;;;7.33;5.77;;;15.10;67.60;;;;;;5022021;28;20482;-66
2022/04/26 11:50:55;;;;;;;7.50;6.83;;;15.10;67.60;;;;;;5014172;28;20926;-68
2022/04/26 11:53:25;;;;;;;7.00;6.17;;;15.10;67.60;;;;;;5019270;28;20842;-67
2022/04/26 11:55:54;;;;;;;7.30;6.70;;;15.10;67.60;;;;;;5017566;28;20515;-66
2022/04/26 11:58:32;;;;;;;7.10;6.20;;;15.10;67.70;;;;;;5032597;28;20454;-67
2022/04/26 12:01:03;;;;;;;6.90;6.27;;;15.10;67.70;;;;;;5034426;28;20438;-68
2022/04/26 12:03:32;;;;;;;7.70;7.00;;;15.10;67.70;;;;;;5034223;28;20526;-66
2022/04/26 12:06:03;;;;;;;6.90;6.30;;;15.10;67.70;;;;;;5027912;28;20481;-67
2022/04/26 12:08:37;;;;;;;6.20;5.70;;;15.10;67.60;;;;;;5033041;28;20501;-67
2022/04/26 12:11:20;;;;;;;6.70;6.10;;;15.10;67.60;;;;;;5030450;28;20504;-66
2022/04/26 12:14:12;;;;;;;5.67;5.23;;;15.10;67.60;;;;;;5032888;28;20557;-65
2022/04/26 12:16:42;;;;;;;7.20;6.47;;;15.00;67.50;;;;;;5030088;28;20443;-67
2022/04/26 12:19:11;;;;;;;6.70;6.10;;;15.10;67.70;;;;;;5029032;28;20478;-66
2022/04/26 12:21:47;;;;;;;6.33;5.73;;;15.10;67.70;;;;;;5034136;28;20550;-66
2022/04/26 12:24:16;;;;;;;7.30;6.47;;;15.00;67.70;;;;;;5030173;28;20481;-68
2022/04/26 12:26:52;;;;;;;6.33;5.83;;;15.10;67.80;;;;;;5030040;28;20493;-68
2022/04/26 12:29:23;;;;;;;6.10;5.20;;;15.00;67.70;;;;;;5019702;28;21073;-67
2022/04/26 12:31:51;;;;;;;6.63;6.03;;;15.00;67.70;;;;;;5033689;28;20438;-66
2022/04/26 12:34:20;;;;;;;6.83;6.23;;;15.00;67.80;;;;;;5029153;28;21021;-68
2022/04/26 12:36:58;;;;;;;5.80;5.30;;;15.00;67.80;;;;;;5033478;28;20478;-66
2022/04/26 12:39:28;;;;;;;7.13;6.53;;;15.00;67.80;;;;;;5032105;28;20499;-67
2022/04/26 12:41:59;;;;;;;7.37;6.00;;;15.00;67.80;;;;;;5033470;28;20431;-66
2022/04/26 12:44:29;;;;;;;8.13;7.30;;;15.00;67.90;;;;;;5031109;28;20489;-68
2022/04/26 12:52:50;;;;;;;8.60;7.47;;;15.00;68.40;;;;;;5023919;28;20435;-67
2022/04/26 12:55:26;;;;;;;7.43;6.73;;;15.00;68.40;;;;;;5028378;28;21054;-68
2022/04/26 12:57:56;;;;;;;6.20;5.70;;;15.00;68.30;;;;;;5032649;28;20489;-67
2022/04/26 13:00:26;;;;;;;7.10;6.47;;;15.00;68.40;;;;;;5032341;28;20463;-69
2022/04/26 13:02:56;;;;;;;7.77;6.97;;;15.00;68.40;;;;;;5029674;28;20531;-68
2022/04/26 13:05:36;;;;;;;7.03;6.43;;;15.00;68.40;;;;;;5032514;28;20553;-67
2022/04/26 13:08:05;;;;;;;7.83;6.67;;;15.00;68.60;;;;;;5032209;28;20490;-67
2022/04/26 13:10:34;;;;;;;8.30;7.53;;;15.00;68.50;;;;;;5031926;28;20810;-66
2022/04/26 13:13:02;;;;;;;7.70;7.00;;;15.00;68.50;;;;;;5025110;28;20432;-68
2022/04/26 13:15:31;;;;;;;8.00;7.40;;;15.00;68.50;;;;;;5032143;28;20489;-67
2022/04/26 13:18:00;;;;;;;6.10;5.50;;;15.00;68.40;;;;;;5032509;28;20449;-68
2022/04/26 13:20:28;;;;;;;6.10;5.60;;;15.00;68.30;;;;;;5023965;28;20450;-68
2022/04/26 13:22:57;;;;;;;8.70;7.80;;;15.00;68.30;;;;;;5031006;28;20472;-67
2022/04/26 13:25:25;;;;;;;6.93;5.90;;;15.00;68.70;;;;;;5028647;28;20524;-68
2022/04/26 13:27:53;;;;;;;7.87;7.17;;;15.00;68.70;;;;;;5029993;28;20513;-68
2022/04/26 13:30:21;;;;;;;6.80;6.20;;;15.00;68.50;;;;;;5049198;28;20477;-68
2022/04/26 13:32:53;;;;;;;7.27;6.13;;;15.00;68.70;;;;;;5050735;28;20516;-68
2022/04/26 13:35:21;;;;;;;6.40;5.90;;;15.00;68.40;;;;;;5038770;28;20473;-67
2022/04/26 13:37:50;;;;;;;9.03;8.13;;;15.00;68.50;;;;;;5051878;28;20446;-67
2022/04/26 13:40:19;;;;;;;7.80;7.10;;;15.00;68.50;;;;;;5048366;28;20474;-68
2022/04/26 13:42:47;;;;;;;6.97;6.27;;;15.00;68.30;;;;;;5050539;28;20479;-66
2022/04/26 13:45:15;;;;;;;10.40;7.37;;;15.00;68.40;;;;;;5051326;28;20480;-68
2022/04/26 13:47:45;;;;;;;7.07;6.40;;;15.00;68.40;;;;;;5055353;28;20507;-67
2022/04/26 13:50:14;;;;;;;7.70;7.00;;;15.00;68.40;;;;;;5051214;28;20465;-67
2022/04/26 13:52:44;;;;;;;7.57;6.77;;;15.00;68.50;;;;;;5036991;28;20470;-68
2022/04/26 13:55:17;;;;;;;7.27;6.63;;;15.00;68.60;;;;;;5047377;28;20550;-67
2022/04/26 13:57:46;;;;;;;7.80;7.07;;;15.00;68.50;;;;;;5051538;28;20988;-68
2022/04/26 14:00:16;;;;;;;7.90;7.10;;;15.00;68.70;;;;;;5051358;28;20480;-68
2022/04/26 14:02:48;;;;;;;7.43;6.67;;;15.00;68.50;;;;;;5051880;28;20436;-67
2022/04/26 14:05:20;;;;;;;6.13;5.63;;;15.00;68.50;;;;;;5046333;28;20481;-68
2022/04/26 14:07:48;;;;;;;6.53;5.93;;;15.00;68.60;;;;;;5052015;28;20444;-67
2022/04/26 14:10:17;;;;;;;7.10;6.50;;;15.00;68.50;;;;;;5047711;28;20538;-68
2022/04/26 14:12:45;;;;;;;7.27;6.63;;;15.00;68.50;;;;;;5050955;28;20434;-67
2022/04/26 14:23:35;;;;;;;8.10;6.40;;;15.00;68.50;;;;;;5050872;28;20458;-68
2022/04/26 14:26:05;;;;;;;7.40;6.80;;;15.00;68.40;;;;;;5047875;28;20460;-68
2022/04/26 14:28:33;;;;;;;6.63;6.10;;;15.00;68.50;;;;;;5050267;28;20470;-66
2022/04/26 14:31:01;;;;;;;7.27;6.57;;;15.00;68.50;;;;;;5050529;28;20542;-67
2022/04/26 14:33:29;;;;;;;6.67;6.07;;;14.90;68.40;;;;;;5050070;28;20483;-68
2022/04/26 14:35:59;;;;;;;6.70;6.20;;;14.90;68.50;;;;;;5033898;28;20524;-68
2022/04/26 14:38:27;;;;;;;6.60;5.80;;;15.00;68.50;;;;;;5035847;28;20465;-67
2022/04/26 14:40:56;;;;;;;6.43;5.93;;;14.90;68.40;;;;;;5036646;28;20502;-68
2022/04/26 14:43:24;;;;;;;6.10;5.60;;;14.90;69.70;;;;;;5031562;28;20455;-68
2022/04/26 14:45:54;;;;;;;7.30;6.00;;;15.00;68.40;;;;;;5046175;28;20462;-68
2022/04/26 14:48:23;;;;;;;7.27;6.60;;;14.90;68.30;;;;;;5038203;28;20454;-68
2022/04/26 14:50:56;;;;;;;6.50;5.93;;;15.00;68.50;;;;;;5038243;28;20518;-68
2022/04/26 14:53:26;;;;;;;7.40;6.80;;;14.90;68.50;;;;;;5049614;28;20531;-68
2022/04/26 14:56:10;;;;;;;8.13;7.43;;;15.00;68.60;;;;;;5048584;28;20855;-68
2022/04/26 14:59:01;;;;;;;9.13;7.53;;;14.90;68.60;;;;;;5048539;28;20465;-68
2022/04/26 15:01:36;;;;;;;7.93;7.13;;;14.90;68.30;;;;;;5051392;28;20533;-68
2022/04/26 15:04:05;;;;;;;6.20;5.60;;;15.00;68.30;;;;;;5049225;28;20472;-67
2022/04/26 15:06:35;;;;;;;7.03;6.37;;;14.90;68.10;;;;;;5051401;28;21117;-68
2022/04/26 15:16:37;;;;;;;5.77;5.17;;;14.90;68.10;;;;;;5031558;28;20423;-66
2022/04/26 15:17:24;;;;;;;5.80;5.20;;;14.90;68.30;;;;;;5050110;28;20865;-66
2022/04/26 15:19:53;;;;;;;8.00;5.37;;;14.90;68.40;;;;;;5042052;28;20504;-68
2022/04/26 15:22:26;;;;;;;5.03;4.53;;;14.80;68.40;;;;;;5046380;28;20557;-68
2022/04/26 15:24:57;;;;;;;6.10;5.50;;;14.80;68.50;;;;;;5048557;28;20564;-68
2022/04/26 15:27:25;;;;;;;5.70;5.20;;;14.80;68.60;;;;;;5055144;28;20477;-67
2022/04/26 15:29:53;;;;;;;6.07;5.57;;;14.80;68.70;;;;;;5054061;28;20500;-66
2022/04/26 15:32:23;;;;;;;5.03;4.63;;;14.80;68.60;;;;;;5054549;28;20463;-66
2022/04/26 15:34:51;;;;;;;4.80;4.40;;;14.80;68.60;;;;;;5050031;28;20484;-67
2022/04/26 15:37:20;;;;;;;5.00;4.50;;;14.80;68.70;;;;;;5053555;28;20906;-68
2022/04/26 15:39:48;;;;;;;4.93;4.53;;;14.80;68.70;;;;;;5053406;28;20874;-68
2022/04/26 15:42:19;;;;;;;4.70;4.30;;;14.80;68.70;;;;;;5054880;28;20482;-66
2022/04/26 15:44:47;;;;;;;5.43;5.03;;;14.80;68.80;;;;;;5054138;28;20550;-68
2022/04/26 15:47:15;;;;;;;6.93;5.43;;;14.80;68.80;;;;;;5054618;28;21065;-68
2022/04/26 15:49:45;;;;;;;5.77;4.60;;;14.80;68.80;;;;;;5052749;28;20473;-67
2022/04/26 15:52:13;;;;;;;5.00;4.23;;;14.80;68.80;;;;;;5054588;28;20427;-68
2022/04/26 15:54:43;;;;;;;4.83;4.43;;;14.80;68.70;;;;;;5052853;28;20477;-68
2022/04/26 15:57:11;;;;;;;5.10;4.70;;;14.80;68.60;;;;;;5054390;28;20426;-67
2022/04/26 15:59:45;;;;;;;4.60;4.20;;;14.80;68.80;;;;;;5053123;28;21040;-68
2022/04/26 16:02:13;;;;;;;4.30;3.90;;;14.80;68.60;;;;;;5052921;28;20842;-68
2022/04/26 16:04:41;;;;;;;5.20;4.80;;;14.80;68.60;;;;;;5051684;28;20820;-69
2022/04/26 16:07:09;;;;;;;5.30;4.90;;;14.80;68.60;;;;;;5053551;28;20991;-68
2022/04/26 16:20:43;;;;;;;4.00;3.70;;;14.80;68.70;;;;;;5043632;28;20866;-68
2022/04/26 16:23:14;;;;;;;5.27;4.87;;;14.80;68.60;;;;;;5053774;28;20445;-68
2022/04/26 16:25:43;;;;;;;4.93;4.53;;;14.80;68.60;;;;;;5052312;28;20465;-68
2022/04/26 16:28:11;;;;;;;3.97;3.70;;;14.80;68.70;;;;;;5053140;28;20453;-68
2022/04/26 16:30:41;;;;;;;4.70;4.30;;;14.80;68.60;;;;;;5053623;28;20449;-68
2022/04/26 16:33:12;;;;;;;4.73;4.33;;;14.80;68.60;;;;;;5053759;28;20434;-68
2022/04/26 16:35:40;;;;;;;4.73;4.33;;;14.80;68.60;;;;;;5043475;28;20800;-68
2022/04/26 16:38:09;;;;;;;4.83;4.53;;;14.80;68.60;;;;;;5052852;28;20490;-69
2022/04/26 16:40:37;;;;;;;4.70;4.30;;;14.80;68.70;;;;;;5052000;28;20442;-68
2022/04/26 16:43:05;;;;;;;4.70;4.30;;;14.80;68.90;;;;;;5053510;28;20466;-69
2022/04/26 16:45:34;;;;;;;5.50;5.00;;;14.80;68.80;;;;;;5052855;28;20461;-69
2022/04/26 16:48:04;;;;;;;4.93;3.87;;;14.80;68.80;;;;;;5050681;28;20514;-68
2022/04/26 16:50:32;;;;;;;4.90;4.40;;;14.80;68.90;;;;;;5052785;28;20453;-69
2022/04/26 16:53:01;;;;;;;4.30;4.00;;;14.80;69.00;;;;;;5051879;28;20483;-67
2022/04/26 16:55:29;;;;;;;4.83;4.43;;;14.80;69.00;;;;;;5049168;28;20556;-66
2022/04/26 16:57:58;;;;;;;4.47;3.70;;;14.80;69.00;;;;;;5052784;28;20469;-68
2022/04/26 17:00:27;;;;;;;5.50;5.10;;;14.80;68.90;;;;;;5052322;28;20825;-66
2022/04/26 17:02:55;;;;;;;4.87;4.47;;;14.80;69.10;;;;;;5052316;28;21007;-68
2022/04/26 17:05:27;;;;;;;4.00;3.70;;;14.80;68.90;;;;;;5047616;28;20478;-68
2022/04/26 17:07:56;;;;;;;4.10;3.80;;;14.80;69.00;;;;;;5052804;28;20465;-67
2022/04/26 17:10:25;;;;;;;4.97;4.57;;;14.80;69.00;;;;;;5041446;28;20470;-68
2022/04/26 17:12:53;;;;;;;4.70;4.30;;;14.80;68.90;;;;;;5052219;28;20977;-68
2022/04/26 17:15:21;;;;;;;6.77;4.57;;;14.80;69.10;;;;;;5052143;28;20531;-68
2022/04/26 17:17:49;;;;;;;4.80;4.50;;;14.80;69.10;;;;;;5049617;28;20431;-67
2022/04/26 17:20:25;;;;;;;4.70;4.30;;;14.80;69.20;;;;;;5050955;28;21188;-68
2022/04/26 17:22:53;;;;;;;4.30;4.00;;;14.80;69.20;;;;;;5052403;28;20847;-68
2022/04/26 17:25:21;;;;;;;5.67;5.17;;;14.80;69.50;;;;;;5048308;28;20474;-67